createdAt,value
2023-12-11T00:00:55.197Z,28.70
2023-12-11T00:03:39.918Z,25.80
2023-12-11T00:06:08.454Z,25.50
2023-12-11T00:08:37.040Z,25.80
2023-12-11T00:11:04.827Z,24.20
2023-12-11T00:13:32.579Z,22.70
2023-12-11T00:16:00.276Z,24.10
2023-12-11T00:18:28.664Z,24.80
2023-12-11T00:20:56.535Z,23.30
2023-12-11T00:23:24.396Z,21.80
2023-12-11T00:25:52.085Z,24.00
2023-12-11T00:28:19.892Z,20.90
2023-12-11T00:30:47.776Z,18.00
2023-12-11T00:33:15.619Z,24.50
2023-12-11T00:35:44.725Z,23.30
2023-12-11T00:38:12.468Z,22.30
2023-12-11T00:40:40.220Z,22.70
2023-12-11T00:43:08.197Z,21.90
2023-12-11T00:45:36.109Z,19.50
2023-12-11T00:48:03.993Z,21.90
2023-12-11T00:50:31.737Z,23.30
2023-12-11T00:52:59.425Z,22.80
2023-12-11T00:55:27.159Z,25.90
2023-12-11T00:57:54.886Z,23.00
2023-12-11T01:00:22.722Z,23.10
2023-12-11T01:02:50.346Z,22.80
2023-12-11T01:05:18.120Z,27.90
2023-12-11T01:07:45.974Z,20.70
2023-12-11T01:10:13.684Z,22.80
2023-12-11T01:12:43.973Z,24.00
2023-12-11T01:15:12.280Z,21.00
2023-12-11T01:17:41.126Z,20.10
2023-12-11T01:20:10.497Z,25.20
2023-12-11T01:22:38.332Z,19.20
2023-12-11T01:25:06.567Z,19.80
2023-12-11T01:27:35.068Z,22.90
2023-12-11T01:30:03.335Z,21.10
2023-12-11T01:32:31.189Z,17.90
2023-12-11T01:34:59.144Z,20.10
2023-12-11T01:37:27.006Z,24.30
2023-12-11T01:39:54.811Z,20.50
2023-12-11T01:42:22.554Z,20.10
2023-12-11T01:44:50.358Z,21.10
2023-12-11T01:47:18.597Z,17.20
2023-12-11T01:49:46.533Z,24.80
2023-12-11T01:52:15.183Z,20.50
2023-12-11T01:54:43.193Z,19.60
2023-12-11T01:57:11.040Z,21.00
2023-12-11T01:59:39.996Z,21.50
2023-12-11T02:02:07.845Z,19.70
2023-12-11T02:04:38.923Z,18.90
2023-12-11T02:07:06.935Z,20.80
2023-12-11T02:09:35.187Z,24.80
2023-12-11T02:12:03.787Z,21.40
2023-12-11T02:14:31.557Z,24.00
2023-12-11T02:16:59.704Z,18.00
2023-12-11T02:19:27.497Z,19.50
2023-12-11T02:21:55.625Z,22.50
2023-12-11T02:24:26.758Z,23.40
2023-12-11T02:26:54.856Z,22.80
2023-12-11T02:29:22.732Z,19.60
2023-12-11T02:31:50.570Z,21.70
2023-12-11T02:34:18.424Z,25.80
2023-12-11T02:36:46.327Z,19.50
2023-12-11T02:39:14.068Z,25.30
2023-12-11T02:41:41.788Z,20.40
2023-12-11T02:44:09.694Z,23.00
2023-12-11T02:46:40.339Z,18.50
2023-12-11T02:49:08.226Z,19.60
2023-12-11T02:51:36.257Z,20.10
2023-12-11T02:54:04.101Z,22.80
2023-12-11T02:56:31.830Z,23.20
2023-12-11T02:58:59.713Z,26.10
2023-12-11T03:01:27.553Z,20.60
2023-12-11T03:03:55.392Z,21.80
2023-12-11T03:06:23.320Z,23.30
2023-12-11T03:08:51.276Z,22.50
2023-12-11T03:11:18.973Z,21.70
2023-12-11T03:13:46.752Z,23.30
2023-12-11T03:16:15.203Z,19.70
2023-12-11T03:18:45.114Z,27.30
2023-12-11T03:21:13.043Z,25.20
2023-12-11T03:23:40.781Z,24.10
2023-12-11T03:26:08.541Z,21.70
2023-12-11T03:28:36.381Z,21.00
2023-12-11T03:31:04.386Z,23.60
2023-12-11T03:33:32.245Z,22.50
2023-12-11T03:36:00.120Z,23.10
2023-12-11T03:38:27.923Z,23.80
2023-12-11T03:40:56.044Z,23.70
2023-12-11T03:43:24.290Z,28.90
2023-12-11T03:45:55.872Z,21.90
2023-12-11T03:50:51.542Z,20.90
2023-12-11T03:53:19.262Z,23.30
2023-12-11T03:55:46.976Z,23.70
2023-12-11T03:58:14.732Z,22.90
2023-12-11T04:00:42.588Z,23.10
2023-12-11T04:03:11.069Z,26.50
2023-12-11T04:05:38.881Z,27.50
2023-12-11T04:08:06.724Z,22.10
2023-12-11T04:10:34.428Z,28.10
2023-12-11T04:13:03.978Z,28.10
2023-12-11T04:15:32.331Z,27.10
2023-12-11T04:18:00.323Z,24.00
2023-12-11T04:20:28.232Z,33.60
2023-12-11T04:22:55.930Z,26.40
2023-12-11T04:25:23.668Z,27.10
2023-12-11T04:27:51.394Z,23.30
2023-12-11T04:30:19.196Z,26.60
2023-12-11T04:32:47.212Z,29.40
2023-12-11T04:35:17.364Z,26.00
2023-12-11T04:37:45.042Z,23.00
2023-12-11T04:40:13.188Z,16.10
2023-12-11T04:42:41.066Z,19.70
2023-12-11T04:45:09.458Z,24.60
2023-12-11T04:47:37.270Z,20.40
2023-12-11T04:50:05.896Z,20.90
2023-12-11T04:52:33.666Z,16.60
2023-12-11T04:55:01.424Z,20.40
2023-12-11T04:57:29.491Z,20.20
2023-12-11T04:59:57.302Z,16.50
2023-12-11T05:02:24.983Z,18.20
2023-12-11T05:04:52.777Z,22.10
2023-12-11T05:07:20.629Z,18.30
2023-12-11T05:09:48.442Z,16.90
2023-12-11T05:12:17.097Z,16.50
2023-12-11T05:14:44.983Z,14.70
2023-12-11T05:17:12.777Z,15.90
2023-12-11T05:19:40.630Z,12.60
2023-12-11T05:22:08.712Z,16.70
2023-12-11T05:24:36.532Z,15.00
2023-12-11T05:27:04.545Z,15.10
2023-12-11T05:29:32.248Z,13.90
2023-12-11T05:32:00.130Z,18.50
2023-12-11T05:34:27.934Z,16.40
2023-12-11T05:36:55.925Z,17.10
2023-12-11T05:39:23.701Z,20.60
2023-12-11T05:41:51.463Z,18.10
2023-12-11T05:44:19.573Z,13.80
2023-12-11T05:46:48.257Z,16.40
2023-12-11T05:49:16.047Z,16.30
2023-12-11T05:51:43.853Z,13.10
2023-12-11T05:54:11.775Z,16.80
2023-12-11T05:56:39.628Z,14.30
2023-12-11T05:59:07.449Z,16.80
2023-12-11T06:01:35.201Z,16.20
2023-12-11T06:04:05.087Z,12.70
2023-12-11T06:06:32.889Z,17.00
2023-12-11T06:09:00.812Z,19.30
2023-12-11T06:11:28.521Z,20.70
2023-12-11T06:13:56.442Z,32.80
2023-12-11T06:16:24.193Z,32.70
2023-12-11T06:18:52.059Z,33.30
2023-12-11T06:21:23.020Z,37.80
2023-12-11T06:23:51.014Z,35.60
2023-12-11T06:26:45.330Z,42.90
2023-12-11T06:29:13.434Z,38.10
2023-12-11T06:31:41.169Z,33.40
2023-12-11T06:34:08.976Z,27.80
2023-12-11T06:36:36.881Z,24.10
2023-12-11T06:39:04.901Z,24.60
2023-12-11T06:41:32.628Z,24.30
2023-12-11T06:44:00.323Z,25.70
2023-12-11T06:46:31.238Z,23.10
2023-12-11T06:48:59.771Z,22.60
2023-12-11T06:51:28.475Z,20.40
2023-12-11T06:54:00.096Z,22.00
2023-12-11T06:56:32.419Z,17.90
2023-12-11T06:59:00.669Z,21.00
2023-12-11T07:01:30.221Z,19.20
2023-12-11T07:03:58.811Z,18.50
2023-12-11T07:06:27.108Z,20.00
2023-12-11T07:08:55.326Z,20.00
2023-12-11T07:11:23.117Z,23.00
2023-12-11T07:13:51.461Z,16.20
2023-12-11T07:16:19.296Z,19.80
2023-12-11T07:18:47.876Z,23.40
2023-12-11T07:21:15.757Z,21.10
2023-12-11T07:23:43.754Z,24.70
2023-12-11T07:26:11.614Z,33.20
2023-12-11T07:28:40.261Z,26.50
2023-12-11T07:31:08.203Z,25.60
2023-12-11T07:33:36.111Z,28.20
2023-12-11T07:36:05.930Z,24.00
2023-12-11T07:38:34.055Z,28.50
2023-12-11T07:41:03.615Z,26.90
2023-12-11T07:43:33.119Z,22.70
2023-12-11T07:46:01.663Z,19.10
2023-12-11T07:48:30.491Z,16.30
2023-12-11T07:51:00.727Z,17.70
2023-12-11T07:53:28.552Z,18.20
2023-12-11T07:55:56.280Z,14.50
2023-12-11T07:58:24.080Z,15.80
2023-12-11T08:00:52.646Z,14.50
2023-12-11T08:03:20.485Z,15.40
2023-12-11T08:05:48.775Z,11.00
2023-12-11T08:08:16.572Z,13.90
2023-12-11T08:10:44.323Z,16.80
2023-12-11T08:13:12.141Z,14.40
2023-12-11T08:15:40.035Z,16.00
2023-12-11T08:18:07.876Z,19.00
2023-12-11T08:20:35.729Z,20.90
2023-12-11T08:23:03.572Z,20.30
2023-12-11T08:25:31.286Z,27.40
2023-12-11T08:27:59.148Z,20.70
2023-12-11T08:30:26.941Z,18.50
2023-12-11T08:32:54.669Z,12.80
2023-12-11T08:35:24.689Z,17.70
2023-12-11T08:37:52.408Z,16.10
2023-12-11T08:40:21.898Z,13.80
2023-12-11T08:42:49.705Z,13.80
2023-12-11T08:45:17.570Z,11.10
2023-12-11T08:47:45.715Z,13.40
2023-12-11T08:50:13.663Z,13.50
2023-12-11T08:52:43.468Z,12.70
2023-12-11T08:55:11.428Z,13.20
2023-12-11T08:57:39.315Z,13.90
2023-12-11T09:00:08.163Z,11.80
2023-12-11T09:02:36.017Z,11.40
2023-12-11T09:05:04.632Z,10.20
2023-12-11T09:07:32.838Z,13.00
2023-12-11T09:10:00.958Z,11.90
2023-12-11T09:12:33.338Z,11.10
2023-12-11T09:15:04.019Z,15.60
2023-12-11T09:17:33.145Z,12.40
2023-12-11T09:20:04.662Z,11.10
2023-12-11T09:22:32.965Z,11.20
2023-12-11T09:25:00.887Z,11.40
2023-12-11T09:27:29.215Z,8.80
2023-12-11T09:29:57.158Z,12.80
2023-12-11T09:32:26.468Z,10.10
2023-12-11T09:34:54.433Z,8.40
2023-12-11T09:37:22.877Z,11.00
2023-12-11T09:39:50.767Z,9.70
2023-12-11T09:42:19.373Z,12.40
2023-12-11T09:44:48.823Z,13.50
2023-12-11T09:47:30.447Z,9.90
2023-12-11T09:49:58.978Z,10.30
2023-12-11T09:52:28.768Z,11.90
2023-12-11T09:54:56.696Z,10.20
2023-12-11T09:57:26.678Z,13.60
2023-12-11T09:59:54.509Z,12.00
2023-12-11T10:02:27.036Z,13.50
2023-12-11T10:05:06.487Z,12.80
2023-12-11T10:07:35.838Z,13.40
2023-12-11T10:10:33.123Z,13.20
2023-12-11T10:13:05.369Z,11.00
2023-12-11T10:15:35.111Z,11.00
2023-12-11T10:18:13.876Z,14.50
2023-12-11T10:20:44.069Z,11.60
2023-12-11T10:23:20.166Z,11.60
2023-12-11T10:25:50.291Z,14.20
2023-12-11T10:28:24.725Z,9.40
2023-12-11T10:31:02.969Z,13.90
2023-12-11T10:33:35.046Z,11.80
2023-12-11T10:36:14.925Z,11.60
2023-12-11T10:38:43.999Z,10.30
2023-12-11T10:41:27.567Z,10.40
2023-12-11T10:44:08.019Z,13.50
2023-12-11T10:46:43.426Z,8.90
2023-12-11T10:49:11.648Z,12.20
2023-12-11T10:51:40.346Z,10.10
2023-12-11T10:54:08.091Z,9.50
2023-12-11T10:56:36.573Z,10.40
2023-12-11T10:59:04.330Z,10.60
2023-12-11T11:01:32.497Z,11.40
2023-12-11T11:04:00.410Z,10.90
2023-12-11T11:06:30.575Z,12.00
2023-12-11T11:09:08.766Z,12.40
2023-12-11T11:11:42.729Z,10.00
2023-12-11T11:14:46.704Z,11.20
2023-12-11T11:17:15.465Z,9.80
2023-12-11T11:20:14.199Z,13.30
2023-12-11T11:22:42.230Z,12.00
2023-12-11T11:25:29.735Z,8.80
2023-12-11T11:27:58.354Z,9.00
2023-12-11T11:30:47.484Z,12.10
2023-12-11T11:33:15.963Z,11.90
2023-12-11T11:35:47.236Z,9.90
2023-12-11T11:38:16.830Z,9.90
2023-12-11T11:40:45.370Z,12.60
2023-12-11T11:43:16.892Z,14.80
2023-12-11T11:45:44.950Z,10.40
2023-12-11T11:48:13.116Z,10.90
2023-12-11T11:50:55.073Z,7.60
2023-12-11T11:53:23.445Z,9.50
2023-12-11T11:55:52.070Z,10.90
2023-12-11T11:58:20.184Z,10.60
2023-12-11T12:00:48.097Z,11.30
2023-12-11T12:03:16.343Z,9.00
2023-12-11T12:05:56.964Z,13.00
2023-12-11T12:08:26.134Z,10.40
2023-12-11T12:10:58.245Z,10.50
2023-12-11T12:13:28.634Z,13.00
2023-12-11T12:15:56.640Z,9.70
2023-12-11T12:18:24.669Z,8.50
2023-12-11T12:21:05.838Z,10.10
2023-12-11T12:23:33.785Z,10.50
2023-12-11T12:26:04.043Z,12.00
2023-12-11T12:28:32.292Z,9.70
2023-12-11T12:31:00.301Z,11.30
2023-12-11T12:33:28.553Z,8.90
2023-12-11T12:35:56.716Z,9.80
2023-12-11T12:38:24.743Z,12.20
2023-12-11T12:40:56.167Z,17.10
2023-12-11T12:43:25.594Z,10.10
2023-12-11T12:46:00.687Z,14.70
2023-12-11T12:48:29.906Z,13.30
2023-12-11T12:51:12.287Z,12.20
2023-12-11T12:53:50.571Z,12.10
2023-12-11T12:56:20.023Z,11.70
2023-12-11T12:58:51.539Z,10.10
2023-12-11T13:03:47.331Z,12.30
2023-12-11T13:06:26.564Z,10.90
2023-12-11T13:08:54.432Z,12.50
2023-12-11T13:11:22.453Z,13.60
2023-12-11T13:13:57.657Z,10.80
2023-12-11T13:16:25.669Z,11.80
2023-12-11T13:18:53.629Z,12.90
2023-12-11T13:21:21.514Z,12.60
2023-12-11T13:23:49.262Z,13.10
2023-12-11T13:26:17.200Z,13.20
2023-12-11T13:28:44.928Z,11.30
2023-12-11T13:31:12.813Z,13.00
2023-12-11T13:33:40.736Z,14.30
2023-12-11T13:36:09.243Z,14.20
2023-12-11T13:38:37.049Z,13.40
2023-12-11T13:41:05.525Z,14.70
2023-12-11T13:43:33.437Z,14.00
2023-12-11T13:46:01.268Z,15.40
2023-12-11T13:48:32.112Z,23.40
2023-12-11T13:51:01.241Z,14.30
2023-12-11T13:53:29.165Z,13.60
2023-12-11T13:55:57.249Z,20.70
2023-12-11T13:58:25.268Z,29.80
2023-12-11T14:00:53.305Z,36.70
2023-12-11T14:03:21.956Z,36.10
2023-12-11T14:05:50.785Z,30.40
2023-12-11T14:08:19.076Z,30.80
2023-12-11T14:10:47.123Z,39.30
2023-12-11T14:13:15.753Z,29.40
2023-12-11T14:15:46.822Z,24.10
2023-12-11T14:18:15.388Z,24.60
2023-12-11T14:20:43.671Z,24.80
2023-12-11T14:23:13.732Z,18.60
2023-12-11T14:25:41.726Z,19.30
2023-12-11T14:28:10.240Z,18.80
2023-12-11T14:30:39.224Z,13.60
2023-12-11T14:33:08.718Z,14.90
2023-12-11T14:35:37.562Z,15.40
2023-12-11T14:38:05.801Z,13.10
2023-12-11T14:40:34.065Z,13.00
2023-12-11T14:43:03.495Z,14.00
2023-12-11T14:45:34.049Z,11.60
2023-12-11T14:48:02.012Z,13.50
2023-12-11T14:50:29.814Z,11.70
2023-12-11T14:52:57.516Z,12.70
2023-12-11T14:55:26.312Z,13.40
2023-12-11T14:57:54.586Z,14.50
2023-12-11T15:00:22.959Z,9.70
2023-12-11T15:02:50.767Z,14.30
2023-12-11T15:05:18.811Z,12.00
2023-12-11T15:07:48.128Z,12.60
2023-12-11T15:10:16.100Z,15.20
2023-12-11T15:12:43.885Z,14.60
2023-12-11T15:15:12.375Z,11.70
2023-12-11T15:17:40.154Z,14.70
2023-12-11T15:20:11.501Z,13.20
2023-12-11T15:22:39.649Z,16.50
2023-12-11T15:25:10.931Z,11.40
2023-12-11T15:27:38.887Z,12.50
2023-12-11T15:30:09.314Z,13.50
2023-12-11T15:32:37.340Z,12.30
2023-12-11T15:35:06.247Z,14.50
2023-12-11T15:37:34.359Z,12.70
2023-12-11T15:40:02.543Z,14.50
2023-12-11T15:42:30.671Z,14.50
2023-12-11T15:44:58.776Z,10.80
2023-12-11T15:47:26.829Z,14.10
2023-12-11T15:49:54.658Z,13.20
2023-12-11T15:52:24.720Z,16.20
2023-12-11T15:54:54.327Z,13.90
2023-12-11T15:57:22.044Z,13.60
2023-12-11T15:59:50.195Z,11.90
2023-12-11T16:02:18.310Z,15.70
2023-12-11T16:04:46.268Z,13.10
2023-12-11T16:07:14.365Z,12.50
2023-12-11T16:09:42.242Z,15.60
2023-12-11T16:12:10.014Z,14.90
2023-12-11T16:14:40.019Z,16.10
2023-12-11T16:17:07.865Z,11.80
2023-12-11T16:19:52.827Z,14.10
2023-12-11T16:22:22.079Z,15.70
2023-12-11T16:24:51.821Z,19.20
2023-12-11T16:27:20.119Z,13.50
2023-12-11T16:29:47.850Z,24.60
2023-12-11T16:32:15.599Z,21.50
2023-12-11T16:34:43.495Z,29.00
2023-12-11T16:37:11.522Z,18.50
2023-12-11T16:39:43.354Z,23.90
2023-12-11T16:42:11.573Z,13.00
2023-12-11T16:44:39.593Z,14.80
2023-12-11T16:47:08.569Z,14.00
2023-12-11T16:49:44.913Z,13.10
2023-12-11T16:52:20.652Z,14.30
2023-12-11T16:54:48.493Z,17.40
2023-12-11T16:57:16.829Z,10.50
2023-12-11T16:59:45.549Z,12.80
2023-12-11T17:02:13.447Z,15.80
2023-12-11T17:04:41.598Z,14.20
2023-12-11T17:07:09.466Z,14.80
2023-12-11T17:09:38.687Z,14.80
2023-12-11T17:12:06.936Z,16.30
2023-12-11T17:14:34.730Z,12.50
2023-12-11T17:17:03.940Z,14.40
2023-12-11T17:19:31.826Z,14.30
2023-12-11T17:22:00.063Z,13.60
2023-12-11T17:24:28.144Z,14.40
2023-12-11T17:26:55.872Z,13.40
2023-12-11T17:29:23.586Z,16.30
2023-12-11T17:31:51.399Z,17.20
2023-12-11T17:34:19.549Z,13.00
2023-12-11T17:36:47.382Z,12.30
2023-12-11T17:39:15.163Z,16.80
2023-12-11T17:41:43.161Z,15.90
2023-12-11T17:44:10.962Z,15.50
2023-12-11T17:46:39.025Z,12.40
2023-12-11T17:49:06.813Z,14.40
2023-12-11T17:51:35.072Z,15.70
2023-12-11T17:54:02.957Z,14.80
2023-12-11T17:56:30.758Z,14.20
2023-12-11T17:58:58.603Z,14.20
2023-12-11T18:01:26.352Z,15.20
2023-12-11T18:03:54.186Z,14.60
2023-12-11T18:06:22.028Z,12.60
2023-12-11T18:08:49.798Z,14.70
2023-12-11T18:11:17.525Z,16.30
2023-12-11T18:13:46.053Z,14.30
2023-12-11T18:16:15.086Z,14.30
2023-12-11T18:18:43.112Z,15.00
2023-12-11T18:21:12.026Z,15.50
2023-12-11T18:23:39.830Z,15.50
2023-12-11T18:26:11.826Z,13.80
2023-12-11T18:28:40.026Z,20.40
2023-12-11T18:31:08.122Z,22.10
2023-12-11T18:33:36.068Z,15.60
2023-12-11T18:36:04.338Z,13.10
2023-12-11T18:38:32.023Z,15.40
2023-12-11T18:40:59.789Z,13.50
2023-12-11T18:43:27.526Z,13.90
2023-12-11T18:45:55.855Z,16.90
2023-12-11T18:48:25.114Z,15.60
2023-12-11T18:50:52.984Z,13.70
2023-12-11T18:53:22.145Z,11.30
2023-12-11T18:55:59.889Z,16.70
2023-12-11T18:58:29.387Z,15.10
2023-12-11T19:00:57.608Z,16.80
2023-12-11T19:03:25.912Z,16.40
2023-12-11T19:05:53.773Z,14.10
2023-12-11T19:08:22.260Z,14.40
2023-12-11T19:10:50.003Z,16.10
2023-12-11T19:13:17.878Z,14.70
2023-12-11T19:15:45.749Z,16.30
2023-12-11T19:18:16.596Z,16.20
2023-12-11T19:20:44.664Z,18.30
2023-12-11T19:23:12.358Z,14.30
2023-12-11T19:25:40.231Z,14.60
2023-12-11T19:28:07.919Z,15.00
2023-12-11T19:30:35.717Z,15.10
2023-12-11T19:33:06.306Z,16.30
2023-12-11T19:35:34.749Z,18.30
2023-12-11T19:38:02.478Z,15.40
2023-12-11T19:40:30.510Z,14.50
2023-12-11T19:42:58.334Z,14.10
2023-12-11T19:45:26.637Z,18.40
2023-12-11T19:47:54.445Z,14.60
2023-12-11T19:50:22.494Z,13.40
2023-12-11T19:52:51.719Z,15.80
2023-12-11T19:55:20.402Z,13.80
2023-12-11T19:57:48.347Z,18.30
2023-12-11T20:00:17.178Z,17.60
2023-12-11T20:02:46.793Z,17.50
2023-12-11T20:05:14.662Z,17.20
2023-12-11T20:07:42.442Z,17.00
2023-12-11T20:10:12.169Z,14.60
2023-12-11T20:12:40.115Z,16.40
2023-12-11T20:15:12.042Z,19.20
2023-12-11T20:17:40.297Z,17.80
2023-12-11T20:20:09.693Z,18.00
2023-12-11T20:22:37.568Z,15.40
2023-12-11T20:25:05.843Z,19.10
2023-12-11T20:27:34.884Z,17.50
2023-12-11T20:30:03.668Z,16.70
2023-12-11T20:32:33.771Z,19.50
2023-12-11T20:35:02.555Z,18.60
2023-12-11T20:37:30.731Z,16.20
2023-12-11T20:39:58.607Z,16.80
2023-12-11T20:42:26.481Z,16.70
2023-12-11T20:44:54.761Z,18.60
2023-12-11T20:47:22.581Z,15.70
2023-12-11T20:49:50.296Z,14.70
2023-12-11T20:52:18.070Z,19.10
2023-12-11T20:54:45.853Z,17.10
2023-12-11T20:57:13.710Z,18.10
2023-12-11T20:59:42.262Z,18.20
2023-12-11T21:02:10.139Z,21.30
2023-12-11T21:04:38.014Z,20.90
2023-12-11T21:07:06.270Z,20.60
2023-12-11T21:09:34.192Z,19.40
2023-12-11T21:12:02.080Z,19.50
2023-12-11T21:14:29.839Z,21.20
2023-12-11T21:16:57.527Z,20.20
2023-12-11T21:19:25.420Z,16.20
2023-12-11T21:21:53.335Z,17.00
2023-12-11T21:24:21.047Z,17.50
2023-12-11T21:26:48.877Z,20.60
2023-12-11T21:29:16.945Z,18.30
2023-12-11T21:31:44.782Z,19.60
2023-12-11T21:34:12.612Z,15.40
2023-12-11T21:36:40.723Z,15.30
2023-12-11T21:39:08.714Z,19.30
2023-12-11T21:41:36.547Z,22.60
2023-12-11T21:44:04.906Z,25.50
2023-12-11T21:46:32.786Z,21.20
2023-12-11T21:49:02.555Z,22.90
2023-12-11T21:51:33.614Z,19.00
2023-12-11T21:54:02.354Z,20.90
2023-12-11T21:56:30.907Z,18.30
2023-12-11T21:58:58.614Z,18.30
2023-12-11T22:01:32.163Z,16.80
2023-12-11T22:04:00.720Z,16.90
2023-12-11T22:06:28.582Z,20.20
2023-12-11T22:08:56.432Z,16.90
2023-12-11T22:11:24.370Z,19.90
2023-12-11T22:13:52.101Z,18.00
2023-12-11T22:16:19.996Z,19.80
2023-12-11T22:18:49.044Z,17.10
2023-12-11T22:21:24.224Z,21.40
2023-12-11T22:23:53.964Z,20.90
2023-12-11T22:26:22.770Z,18.40
2023-12-11T22:28:50.536Z,22.60
2023-12-11T22:31:30.090Z,21.00
2023-12-11T22:33:58.052Z,18.60
2023-12-11T22:36:26.098Z,21.00
2023-12-11T22:38:53.831Z,21.40
2023-12-11T22:41:31.064Z,21.80
2023-12-11T22:43:59.314Z,17.30
2023-12-11T22:46:28.026Z,19.10
2023-12-11T22:48:57.612Z,19.40
2023-12-11T22:51:25.586Z,20.60
2023-12-11T22:53:53.417Z,19.50
2023-12-11T22:56:21.210Z,20.40
2023-12-11T22:58:49.209Z,16.50
2023-12-11T23:01:17.194Z,21.20
2023-12-11T23:03:45.551Z,16.50
2023-12-11T23:06:14.117Z,19.40
2023-12-11T23:12:37.509Z,16.10
2023-12-11T23:16:06.747Z,20.40
2023-12-11T23:19:35.649Z,19.10
2023-12-11T23:23:04.707Z,20.60
2023-12-11T23:26:33.598Z,19.40
2023-12-11T23:30:07.270Z,22.70
2023-12-11T23:33:27.204Z,16.40
2023-12-11T23:36:56.337Z,17.60
2023-12-11T23:40:24.980Z,16.50
2023-12-11T23:43:53.654Z,19.10
2023-12-11T23:47:22.399Z,16.00
2023-12-11T23:50:51.127Z,18.90
2023-12-11T23:54:19.850Z,14.80
2023-12-11T23:57:48.766Z,18.30
